createdAt,value
2023-08-27T00:01:46.507Z,99.90
2023-08-27T00:04:13.250Z,99.90
2023-08-27T00:06:40.022Z,99.90
2023-08-27T00:09:07.786Z,99.90
2023-08-27T00:11:34.697Z,99.90
2023-08-27T00:14:01.589Z,99.90
2023-08-27T00:16:28.541Z,99.90
2023-08-27T00:18:56.737Z,99.90
2023-08-27T00:21:23.718Z,99.90
2023-08-27T00:23:50.403Z,99.90
2023-08-27T00:26:17.315Z,99.90
2023-08-27T00:28:44.421Z,99.90
2023-08-27T00:31:11.224Z,99.90
2023-08-27T00:33:37.998Z,99.90
2023-08-27T00:36:05.395Z,99.90
2023-08-27T00:38:33.001Z,99.90
2023-08-27T00:40:59.733Z,99.90
2023-08-27T00:43:26.697Z,99.90
2023-08-27T00:45:53.616Z,99.90
2023-08-27T00:48:20.967Z,99.90
2023-08-27T00:50:47.995Z,99.90
2023-08-27T00:53:16.624Z,99.90
2023-08-27T00:55:43.577Z,99.90
2023-08-27T00:58:10.777Z,99.90
2023-08-27T01:00:37.852Z,99.90
2023-08-27T01:03:11.309Z,99.90
2023-08-27T01:05:38.277Z,99.90
2023-08-27T01:08:16.558Z,99.90
2023-08-27T01:10:55.771Z,99.90
2023-08-27T01:13:37.816Z,99.90
2023-08-27T01:16:06.879Z,99.90
2023-08-27T01:18:35.641Z,99.90
2023-08-27T01:21:18.643Z,99.90
2023-08-27T01:23:46.384Z,99.90
2023-08-27T01:26:52.090Z,99.90
2023-08-27T01:29:37.980Z,99.90
2023-08-27T01:32:23.919Z,99.90
2023-08-27T01:34:54.999Z,99.90
2023-08-27T01:37:22.444Z,99.90
2023-08-27T01:40:07.986Z,99.90
2023-08-27T01:42:36.686Z,99.90
2023-08-27T01:45:05.499Z,99.90
2023-08-27T01:47:32.428Z,99.90
2023-08-27T01:49:59.500Z,99.90
2023-08-27T01:52:26.477Z,99.90
2023-08-27T01:54:53.521Z,99.90
2023-08-27T01:57:20.285Z,99.90
2023-08-27T01:59:47.130Z,99.90
2023-08-27T02:02:13.978Z,99.90
2023-08-27T02:04:40.766Z,99.90
2023-08-27T02:07:07.691Z,99.90
2023-08-27T02:09:34.457Z,99.90
2023-08-27T02:12:01.844Z,99.90
2023-08-27T02:14:28.695Z,99.90
2023-08-27T02:16:55.525Z,99.90
2023-08-27T02:19:22.905Z,99.90
2023-08-27T02:21:49.670Z,99.90
2023-08-27T02:24:16.453Z,99.90
2023-08-27T02:26:43.260Z,99.90
2023-08-27T02:29:11.189Z,99.90
2023-08-27T02:31:37.968Z,99.90
2023-08-27T02:34:04.894Z,99.90
2023-08-27T02:38:59.574Z,99.90
2023-08-27T02:41:26.336Z,99.90
2023-08-27T02:43:53.119Z,99.90
2023-08-27T02:46:27.680Z,99.90
2023-08-27T02:48:54.917Z,99.90
2023-08-27T02:51:22.241Z,99.90
2023-08-27T02:53:52.207Z,99.90
2023-08-27T02:56:19.897Z,99.90
2023-08-27T02:58:50.642Z,99.90
2023-08-27T03:01:23.991Z,99.90
2023-08-27T03:03:52.503Z,99.90
2023-08-27T03:06:19.657Z,99.90
2023-08-27T03:08:46.764Z,99.90
2023-08-27T03:11:13.629Z,99.90
2023-08-27T03:13:40.474Z,99.90
2023-08-27T03:16:07.361Z,99.90
2023-08-27T03:18:34.510Z,99.90
2023-08-27T03:21:01.378Z,99.90
2023-08-27T03:23:31.859Z,99.90
2023-08-27T03:26:00.039Z,99.90
2023-08-27T03:28:26.911Z,99.90
2023-08-27T03:30:53.861Z,99.90
2023-08-27T03:33:21.233Z,99.90
2023-08-27T03:35:56.157Z,99.90
2023-08-27T03:38:23.001Z,99.90
2023-08-27T03:40:50.894Z,99.90
2023-08-27T03:43:23.940Z,99.90
2023-08-27T03:45:50.854Z,99.90
2023-08-27T03:48:17.883Z,99.90
2023-08-27T03:50:46.427Z,99.90
2023-08-27T03:53:13.205Z,99.90
2023-08-27T03:55:40.616Z,99.90
2023-08-27T03:58:08.889Z,99.90
2023-08-27T04:03:30.082Z,99.90
2023-08-27T04:05:57.297Z,99.90
2023-08-27T04:08:24.223Z,99.90
2023-08-27T04:10:54.858Z,99.90
2023-08-27T04:13:22.132Z,99.90
2023-08-27T04:15:59.922Z,99.90
2023-08-27T04:18:28.197Z,99.90
2023-08-27T04:20:56.012Z,99.90
2023-08-27T04:23:23.508Z,99.90
2023-08-27T04:25:50.382Z,99.90
2023-08-27T04:28:17.199Z,99.90
2023-08-27T04:30:44.200Z,99.90
2023-08-27T04:33:14.042Z,99.90
2023-08-27T04:35:41.021Z,99.90
2023-08-27T04:38:08.090Z,99.90
2023-08-27T04:40:35.000Z,99.90
2023-08-27T04:43:02.879Z,99.90
2023-08-27T04:45:30.268Z,99.90
2023-08-27T04:47:57.926Z,99.90
2023-08-27T04:50:25.122Z,99.90
2023-08-27T04:52:51.848Z,99.90
2023-08-27T04:55:19.712Z,99.90
2023-08-27T04:57:47.467Z,99.90
2023-08-27T05:00:32.458Z,99.90
2023-08-27T05:02:59.775Z,99.90
2023-08-27T05:05:26.583Z,99.90
2023-08-27T05:07:53.484Z,99.90
2023-08-27T05:10:21.622Z,99.90
2023-08-27T05:12:48.692Z,99.90
2023-08-27T05:15:17.499Z,99.90
2023-08-27T05:17:44.464Z,99.90
2023-08-27T05:20:11.951Z,99.90
2023-08-27T05:22:38.753Z,99.90
2023-08-27T05:25:06.061Z,99.90
2023-08-27T05:27:33.154Z,99.90
2023-08-27T05:30:01.055Z,99.90
2023-08-27T05:32:28.182Z,99.90
2023-08-27T05:34:55.519Z,99.90
2023-08-27T05:37:22.899Z,99.90
2023-08-27T05:39:49.723Z,99.90
2023-08-27T05:42:17.655Z,99.90
2023-08-27T05:44:44.565Z,99.90
2023-08-27T05:47:11.622Z,99.90
2023-08-27T05:49:38.332Z,99.90
2023-08-27T05:52:06.181Z,99.90
2023-08-27T05:54:32.971Z,99.90
2023-08-27T05:56:59.838Z,99.90
2023-08-27T05:59:27.114Z,99.90
2023-08-27T06:01:53.914Z,99.90
2023-08-27T06:04:20.773Z,99.90
2023-08-27T06:06:47.580Z,99.90
2023-08-27T06:09:14.452Z,99.90
2023-08-27T06:11:41.297Z,99.90
2023-08-27T06:14:08.545Z,99.90
2023-08-27T06:16:35.632Z,99.90
2023-08-27T06:19:02.645Z,99.90
2023-08-27T06:21:29.502Z,99.90
2023-08-27T06:23:56.241Z,99.90
2023-08-27T06:26:23.985Z,99.90
2023-08-27T06:28:50.766Z,99.90
2023-08-27T06:31:17.612Z,99.90
2023-08-27T06:33:46.291Z,99.90
2023-08-27T06:36:13.100Z,99.90
2023-08-27T06:38:40.051Z,99.90
2023-08-27T06:41:07.138Z,99.90
2023-08-27T06:43:34.225Z,99.90
2023-08-27T06:46:01.192Z,99.90
2023-08-27T06:48:28.358Z,99.90
2023-08-27T06:50:55.748Z,99.90
2023-08-27T06:53:22.733Z,99.90
2023-08-27T06:55:49.579Z,99.90
2023-08-27T06:58:16.514Z,99.90
2023-08-27T07:00:43.510Z,99.90
2023-08-27T07:03:10.420Z,99.90
2023-08-27T07:05:40.409Z,99.90
2023-08-27T07:08:07.399Z,99.90
2023-08-27T07:10:34.298Z,99.90
2023-08-27T07:13:02.252Z,99.90
2023-08-27T07:15:29.340Z,99.90
2023-08-27T07:17:56.293Z,99.90
2023-08-27T07:20:24.758Z,99.90
2023-08-27T07:22:51.863Z,99.90
2023-08-27T07:25:19.842Z,99.90
2023-08-27T07:27:47.526Z,99.90
2023-08-27T07:30:14.757Z,99.90
2023-08-27T07:32:41.611Z,99.90
2023-08-27T07:35:08.925Z,99.90
2023-08-27T07:37:37.036Z,99.90
2023-08-27T07:40:05.809Z,99.90
2023-08-27T07:42:33.500Z,99.90
2023-08-27T07:45:00.440Z,99.90
2023-08-27T07:47:27.440Z,99.90
2023-08-27T07:49:54.395Z,99.90
2023-08-27T07:52:27.327Z,99.90
2023-08-27T07:54:54.262Z,99.90
2023-08-27T07:57:21.034Z,99.90
2023-08-27T07:59:49.730Z,99.90
2023-08-27T08:02:16.513Z,99.90
2023-08-27T08:04:43.859Z,99.90
2023-08-27T08:07:10.782Z,99.90
2023-08-27T08:09:37.582Z,99.90
2023-08-27T08:12:04.886Z,99.90
2023-08-27T08:14:32.160Z,99.90
2023-08-27T08:16:59.145Z,99.90
2023-08-27T08:19:25.917Z,99.90
2023-08-27T08:21:55.690Z,99.90
2023-08-27T08:24:43.586Z,99.90
2023-08-27T08:27:10.998Z,99.90
2023-08-27T08:29:37.882Z,99.90
2023-08-27T08:32:05.106Z,99.90
2023-08-27T08:34:32.043Z,99.90
2023-08-27T08:36:58.851Z,99.90
2023-08-27T08:39:28.651Z,99.90
2023-08-27T08:42:29.903Z,99.90
2023-08-27T08:45:13.175Z,99.90
2023-08-27T08:47:40.236Z,99.90
2023-08-27T08:50:11.391Z,99.90
2023-08-27T08:52:48.095Z,99.90
2023-08-27T08:55:17.913Z,99.90
2023-08-27T08:57:59.857Z,99.90
2023-08-27T09:00:27.938Z,99.90
2023-08-27T09:02:55.808Z,99.90
2023-08-27T09:05:24.813Z,99.90
2023-08-27T09:07:52.160Z,99.90
2023-08-27T09:10:19.923Z,99.90
2023-08-27T09:12:49.997Z,99.90
2023-08-27T09:15:20.015Z,99.90
2023-08-27T09:17:49.010Z,99.90
2023-08-27T09:24:22.291Z,99.90
2023-08-27T09:26:26.932Z,99.90
2023-08-27T09:27:01.344Z,99.90
2023-08-27T09:29:29.859Z,99.90
2023-08-27T09:31:58.234Z,99.90
2023-08-27T09:34:25.092Z,99.90
2023-08-27T09:36:52.587Z,99.90
2023-08-27T09:39:21.599Z,99.90
2023-08-27T09:41:51.302Z,99.90
2023-08-27T09:44:18.707Z,99.90
2023-08-27T09:46:48.749Z,99.90
2023-08-27T09:49:15.557Z,99.90
2023-08-27T09:51:43.188Z,99.90
2023-08-27T09:54:18.448Z,99.90
2023-08-27T09:56:52.033Z,99.90
2023-08-27T09:59:19.962Z,99.90
2023-08-27T10:01:51.315Z,99.90
2023-08-27T10:04:19.365Z,99.90
2023-08-27T10:06:49.849Z,99.90
2023-08-27T10:09:17.961Z,99.90
2023-08-27T10:11:46.651Z,99.90
2023-08-27T10:14:15.213Z,99.90
2023-08-27T10:16:43.202Z,99.90
2023-08-27T10:19:11.006Z,99.90
2023-08-27T10:21:38.224Z,99.90
2023-08-27T10:24:06.752Z,99.90
2023-08-27T10:26:34.804Z,99.90
2023-08-27T10:29:04.717Z,99.90
2023-08-27T10:31:32.400Z,99.90
2023-08-27T10:33:59.433Z,99.90
2023-08-27T10:36:35.850Z,99.90
2023-08-27T10:39:05.412Z,99.90
2023-08-27T10:41:35.475Z,99.90
2023-08-27T10:44:03.342Z,99.90
2023-08-27T10:46:30.330Z,99.90
2023-08-27T10:48:57.345Z,99.90
2023-08-27T10:51:33.064Z,99.90
2023-08-27T10:54:01.510Z,99.90
2023-08-27T10:56:34.660Z,99.90
2023-08-27T10:59:09.079Z,99.90
2023-08-27T11:01:38.134Z,99.90
2023-08-27T11:04:08.358Z,99.90
2023-08-27T11:06:38.370Z,99.90
2023-08-27T11:09:26.709Z,99.90
2023-08-27T11:11:57.602Z,99.90
2023-08-27T11:14:25.899Z,99.90
2023-08-27T11:16:59.502Z,99.90
2023-08-27T11:19:30.532Z,99.90
2023-08-27T11:22:15.205Z,99.90
2023-08-27T11:24:46.473Z,99.90
2023-08-27T11:30:02.006Z,99.90
2023-08-27T11:32:29.007Z,99.90
2023-08-27T11:34:56.080Z,99.90
2023-08-27T11:37:36.292Z,99.90
2023-08-27T11:40:20.118Z,99.90
2023-08-27T11:42:51.697Z,99.90
2023-08-27T11:45:18.753Z,99.90
2023-08-27T11:47:45.608Z,99.90
2023-08-27T11:50:13.460Z,99.90
2023-08-27T11:52:40.844Z,99.90
2023-08-27T11:55:08.550Z,99.90
2023-08-27T11:57:35.577Z,99.90
2023-08-27T12:00:12.364Z,99.90
2023-08-27T12:02:40.899Z,99.90
2023-08-27T12:05:15.267Z,99.90
2023-08-27T12:08:17.388Z,99.90
2023-08-27T12:10:47.424Z,99.90
2023-08-27T12:13:15.000Z,99.90
2023-08-27T12:15:42.145Z,99.90
2023-08-27T12:18:09.706Z,99.90
2023-08-27T12:20:37.632Z,99.90
2023-08-27T12:23:17.067Z,99.90
2023-08-27T12:25:51.948Z,99.90
2023-08-27T12:28:19.549Z,99.90
2023-08-27T12:30:53.461Z,99.90
2023-08-27T12:33:22.981Z,99.90
2023-08-27T12:35:51.246Z,99.90
2023-08-27T12:38:18.220Z,99.90
2023-08-27T12:40:45.171Z,99.90
2023-08-27T12:43:12.142Z,99.90
2023-08-27T12:45:39.048Z,99.90
2023-08-27T12:48:09.074Z,99.90
2023-08-27T12:51:00.594Z,99.90
2023-08-27T12:53:27.626Z,99.90
2023-08-27T12:55:54.600Z,99.90
2023-08-27T12:58:21.547Z,99.90
2023-08-27T13:00:48.845Z,99.90
2023-08-27T13:03:23.221Z,99.90
2023-08-27T13:05:51.397Z,99.90
2023-08-27T13:08:21.228Z,99.90
2023-08-27T13:11:13.766Z,99.90
2023-08-27T13:13:40.775Z,99.90
2023-08-27T13:16:07.882Z,99.90
2023-08-27T13:18:34.888Z,99.90
2023-08-27T13:21:02.009Z,99.90
2023-08-27T13:23:44.611Z,99.90
2023-08-27T13:26:36.957Z,99.90
2023-08-27T13:29:04.064Z,99.90
2023-08-27T13:31:38.539Z,99.90
2023-08-27T13:34:09.441Z,99.90
2023-08-27T13:36:36.396Z,99.90
2023-08-27T13:39:03.695Z,99.90
2023-08-27T13:41:36.947Z,99.90
2023-08-27T13:44:04.270Z,99.90
2023-08-27T13:46:31.392Z,99.90
2023-08-27T13:48:58.193Z,99.90
2023-08-27T13:51:25.154Z,99.90
2023-08-27T13:53:53.572Z,99.90
2023-08-27T13:56:21.063Z,99.90
2023-08-27T13:58:48.007Z,99.90
2023-08-27T14:01:14.808Z,99.90
2023-08-27T14:03:41.598Z,99.90
2023-08-27T14:06:08.455Z,99.90
2023-08-27T14:08:35.385Z,99.90
2023-08-27T14:11:05.607Z,99.90
2023-08-27T14:13:32.846Z,99.90
2023-08-27T14:15:59.925Z,99.90
2023-08-27T14:18:26.759Z,99.90
2023-08-27T14:20:53.555Z,99.90
2023-08-27T14:23:21.758Z,99.90
2023-08-27T14:28:39.513Z,99.90
2023-08-27T14:31:10.592Z,99.90
2023-08-27T14:33:37.366Z,99.90
2023-08-27T14:36:04.752Z,99.90
2023-08-27T14:38:31.894Z,99.90
2023-08-27T14:40:58.834Z,99.90
2023-08-27T14:43:25.620Z,99.90
2023-08-27T14:45:53.535Z,99.90
2023-08-27T14:48:20.453Z,99.90
2023-08-27T14:50:47.411Z,99.90
2023-08-27T14:53:14.200Z,99.90
2023-08-27T14:55:41.168Z,99.90
2023-08-27T14:58:09.175Z,99.90
2023-08-27T15:00:35.903Z,99.90
2023-08-27T15:03:02.815Z,99.90
2023-08-27T15:05:30.891Z,99.90
2023-08-27T15:07:57.832Z,99.90
2023-08-27T15:10:24.628Z,99.90
2023-08-27T15:12:51.626Z,99.90
2023-08-27T15:15:19.065Z,99.90
2023-08-27T15:17:50.746Z,99.90
2023-08-27T15:20:29.256Z,99.90
2023-08-27T15:22:56.030Z,99.90
2023-08-27T15:25:24.082Z,99.90
2023-08-27T15:27:50.866Z,99.90
2023-08-27T15:30:20.882Z,99.90
2023-08-27T15:32:48.540Z,99.90
2023-08-27T15:35:18.296Z,99.90
2023-08-27T15:37:47.764Z,99.90
2023-08-27T15:40:14.826Z,99.90
2023-08-27T15:42:42.729Z,99.90
2023-08-27T15:45:10.799Z,99.90
2023-08-27T15:47:37.822Z,99.90
2023-08-27T15:50:05.194Z,99.90
2023-08-27T15:52:32.073Z,99.90
2023-08-27T15:54:59.242Z,99.90
2023-08-27T15:57:26.011Z,99.90
2023-08-27T15:59:52.877Z,99.90
2023-08-27T16:02:19.693Z,99.90
2023-08-27T16:04:46.566Z,99.90
2023-08-27T16:07:13.280Z,99.90
2023-08-27T16:09:49.481Z,99.90
2023-08-27T16:12:17.347Z,99.90
2023-08-27T16:14:44.124Z,99.90
2023-08-27T16:17:10.829Z,99.90
2023-08-27T16:19:38.061Z,99.90
2023-08-27T16:22:04.828Z,99.90
2023-08-27T16:24:31.600Z,99.90
2023-08-27T16:26:58.510Z,99.90
2023-08-27T16:29:25.305Z,99.90
2023-08-27T16:34:42.717Z,99.90
2023-08-27T16:37:09.696Z,99.90
2023-08-27T16:39:37.052Z,99.90
2023-08-27T16:42:03.921Z,99.90
2023-08-27T16:44:30.964Z,99.90
2023-08-27T16:46:57.820Z,99.90
2023-08-27T16:49:24.793Z,98.60
2023-08-27T16:51:52.641Z,96.70
2023-08-27T16:54:22.455Z,97.40
2023-08-27T16:56:49.523Z,97.00
2023-08-27T16:59:16.319Z,97.20
2023-08-27T17:01:43.311Z,97.40
2023-08-27T17:04:10.328Z,97.90
2023-08-27T17:06:37.162Z,98.40
2023-08-27T17:09:04.051Z,99.50
2023-08-27T17:11:30.881Z,99.90
2023-08-27T17:13:57.718Z,99.90
2023-08-27T17:16:24.540Z,99.70
2023-08-27T17:18:51.233Z,99.70
2023-08-27T17:21:17.926Z,99.90
2023-08-27T17:23:45.088Z,96.30
2023-08-27T17:26:12.276Z,99.90
2023-08-27T17:28:39.058Z,99.90
2023-08-27T17:31:05.846Z,99.90
2023-08-27T17:33:32.656Z,99.90
2023-08-27T17:35:59.401Z,99.40
2023-08-27T17:38:27.771Z,99.90
2023-08-27T17:40:55.702Z,99.90
2023-08-27T17:43:45.623Z,99.90
2023-08-27T17:46:10.363Z,99.90
2023-08-27T17:48:37.250Z,99.90
2023-08-27T17:51:04.266Z,99.90
2023-08-27T17:53:31.229Z,99.90
2023-08-27T17:55:57.981Z,99.90
2023-08-27T17:58:24.941Z,99.90
2023-08-27T18:00:57.999Z,99.90
2023-08-27T18:03:27.780Z,99.90
2023-08-27T18:05:54.843Z,99.90
2023-08-27T18:08:22.614Z,99.90
2023-08-27T18:10:49.604Z,99.90
2023-08-27T18:13:16.396Z,99.90
2023-08-27T18:15:43.274Z,99.90
2023-08-27T18:18:10.197Z,99.90
2023-08-27T18:20:37.238Z,99.90
2023-08-27T18:23:04.273Z,99.90
2023-08-27T18:25:31.094Z,99.90
2023-08-27T18:27:57.849Z,99.90
2023-08-27T18:30:27.107Z,99.90
2023-08-27T18:32:53.945Z,99.90
2023-08-27T18:35:20.778Z,99.90
2023-08-27T18:37:47.610Z,99.90
2023-08-27T18:40:14.773Z,99.90
2023-08-27T18:42:41.580Z,99.90
2023-08-27T18:45:08.936Z,99.90
2023-08-27T18:47:36.259Z,99.90
2023-08-27T18:50:04.245Z,99.90
2023-08-27T18:52:31.084Z,99.90
2023-08-27T18:54:58.503Z,99.90
2023-08-27T18:57:25.874Z,99.90
2023-08-27T18:59:53.948Z,99.90
2023-08-27T19:02:21.107Z,99.90
2023-08-27T19:04:48.272Z,99.90
2023-08-27T19:07:15.011Z,99.90
2023-08-27T19:09:44.029Z,99.90
2023-08-27T19:12:10.821Z,99.90
2023-08-27T19:14:37.663Z,99.90
2023-08-27T19:17:04.565Z,99.90
2023-08-27T19:19:31.275Z,99.90
2023-08-27T19:21:58.030Z,99.90
2023-08-27T19:24:24.861Z,99.90
2023-08-27T19:26:51.836Z,99.90
2023-08-27T19:29:18.721Z,99.90
2023-08-27T19:31:47.650Z,99.90
2023-08-27T19:34:15.664Z,99.90
2023-08-27T19:36:46.146Z,99.90
2023-08-27T19:39:13.607Z,99.90
2023-08-27T19:41:40.633Z,99.90
2023-08-27T19:44:07.494Z,99.90
2023-08-27T19:46:35.611Z,99.90
2023-08-27T19:49:02.509Z,99.90
2023-08-27T19:51:31.889Z,99.90
2023-08-27T19:53:58.745Z,99.90
2023-08-27T19:56:25.561Z,99.90
2023-08-27T19:58:52.294Z,99.90
2023-08-27T20:01:19.925Z,99.90
2023-08-27T20:03:46.814Z,99.90
2023-08-27T20:06:14.045Z,99.90
2023-08-27T20:08:42.173Z,99.90
2023-08-27T20:11:09.273Z,99.90
2023-08-27T20:13:35.980Z,99.90
2023-08-27T20:16:02.845Z,99.90
2023-08-27T20:18:29.751Z,99.90
2023-08-27T20:20:57.107Z,99.90
2023-08-27T20:23:24.391Z,99.90
2023-08-27T20:25:52.147Z,99.90
2023-08-27T20:28:19.321Z,99.90
2023-08-27T20:30:49.643Z,99.90
2023-08-27T20:33:16.679Z,99.90
2023-08-27T20:35:44.089Z,99.90
2023-08-27T20:38:11.160Z,99.90
2023-08-27T20:40:39.387Z,99.90
2023-08-27T20:43:06.853Z,99.90
2023-08-27T20:45:35.928Z,99.90
2023-08-27T20:48:04.254Z,99.90
2023-08-27T20:50:31.415Z,99.90
2023-08-27T20:52:58.959Z,99.90
2023-08-27T20:55:25.824Z,99.90
2023-08-27T20:57:52.614Z,99.90
2023-08-27T21:00:19.352Z,99.90
2023-08-27T21:02:46.257Z,99.90
2023-08-27T21:05:13.290Z,99.90
2023-08-27T21:07:40.117Z,99.90
2023-08-27T21:10:08.932Z,99.90
2023-08-27T21:12:35.714Z,99.90
2023-08-27T21:15:02.526Z,99.90
2023-08-27T21:17:29.327Z,99.90
2023-08-27T21:19:56.278Z,99.90
2023-08-27T21:22:23.214Z,99.90
2023-08-27T21:24:49.914Z,99.90
2023-08-27T21:27:16.665Z,99.90
2023-08-27T21:29:43.441Z,99.90
2023-08-27T21:32:10.231Z,99.90
2023-08-27T21:34:37.085Z,99.90
2023-08-27T21:37:04.253Z,99.90
2023-08-27T21:39:31.402Z,99.90
2023-08-27T21:41:58.181Z,99.90
2023-08-27T21:44:25.132Z,99.90
2023-08-27T21:46:51.897Z,99.90
2023-08-27T21:49:18.662Z,99.90
2023-08-27T21:51:45.902Z,99.90
2023-08-27T21:54:13.723Z,99.90
2023-08-27T21:56:40.912Z,99.90
2023-08-27T21:59:07.801Z,99.90
2023-08-27T22:01:34.665Z,99.90
2023-08-27T22:04:01.675Z,99.90
2023-08-27T22:06:28.780Z,99.90
2023-08-27T22:08:55.596Z,99.90
2023-08-27T22:11:22.827Z,99.90
2023-08-27T22:13:49.668Z,99.90
2023-08-27T22:16:18.299Z,99.90
2023-08-27T22:18:45.370Z,99.90
2023-08-27T22:21:13.001Z,99.90
2023-08-27T22:23:39.846Z,99.90
2023-08-27T22:26:07.608Z,99.90
2023-08-27T22:28:34.850Z,99.90
2023-08-27T22:31:01.619Z,99.90
2023-08-27T22:33:28.445Z,99.90
2023-08-27T22:35:55.182Z,99.90
2023-08-27T22:38:21.956Z,99.90
2023-08-27T22:40:48.743Z,99.90
2023-08-27T22:43:15.517Z,99.90
2023-08-27T22:45:46.655Z,99.90
2023-08-27T22:48:13.388Z,99.90
2023-08-27T22:50:40.237Z,99.90
2023-08-27T22:53:06.967Z,99.90
2023-08-27T22:55:33.724Z,99.90
2023-08-27T22:58:00.663Z,99.90
2023-08-27T23:00:27.413Z,99.90
2023-08-27T23:02:54.342Z,99.90
2023-08-27T23:05:21.161Z,99.90
2023-08-27T23:07:48.074Z,99.90
2023-08-27T23:10:14.820Z,99.90
2023-08-27T23:12:41.565Z,99.90
2023-08-27T23:15:09.181Z,99.90
2023-08-27T23:17:36.388Z,99.90
2023-08-27T23:20:03.280Z,99.90
2023-08-27T23:22:31.946Z,99.90
2023-08-27T23:25:01.236Z,99.90
2023-08-27T23:27:28.467Z,99.90
2023-08-27T23:29:55.202Z,99.90
2023-08-27T23:32:21.966Z,99.90
2023-08-27T23:34:49.961Z,99.90
2023-08-27T23:37:16.996Z,99.90
2023-08-27T23:39:43.824Z,99.90
2023-08-27T23:42:10.613Z,99.90
2023-08-27T23:44:38.280Z,99.90
2023-08-27T23:47:08.306Z,99.90
2023-08-27T23:49:35.076Z,99.90
2023-08-27T23:52:01.801Z,99.90
2023-08-27T23:54:28.545Z,99.90
2023-08-27T23:56:55.277Z,99.90
2023-08-27T23:59:22.037Z,99.90
